sensor_id;sensor_type;location;lat;lon;timestamp;P1;durP1;ratioP1;P2;durP2;ratioP2
29538;SDS011;16482;51.046;4.498;2023-08-30T00:01:08;3.92;;;3.53;;
29538;SDS011;16482;51.046;4.498;2023-08-30T00:03:34;4.05;;;3.47;;
29538;SDS011;16482;51.046;4.498;2023-08-30T00:06:04;4.18;;;3.17;;
29538;SDS011;16482;51.046;4.498;2023-08-30T00:08:31;4.80;;;3.60;;
29538;SDS011;16482;51.046;4.498;2023-08-30T00:10:57;4.28;;;3.58;;
29538;SDS011;16482;51.046;4.498;2023-08-30T00:13:26;3.35;;;3.00;;
29538;SDS011;16482;51.046;4.498;2023-08-30T00:15:54;3.83;;;3.38;;
29538;SDS011;16482;51.046;4.498;2023-08-30T00:18:23;3.85;;;3.42;;
29538;SDS011;16482;51.046;4.498;2023-08-30T00:20:49;3.88;;;3.30;;
29538;SDS011;16482;51.046;4.498;2023-08-30T00:23:18;4.88;;;3.50;;
29538;SDS011;16482;51.046;4.498;2023-08-30T00:25:47;4.10;;;3.60;;
29538;SDS011;16482;51.046;4.498;2023-08-30T00:28:23;4.70;;;3.45;;
29538;SDS011;16482;51.046;4.498;2023-08-30T00:30:53;3.95;;;3.55;;
29538;SDS011;16482;51.046;4.498;2023-08-30T00:33:22;5.03;;;3.53;;
29538;SDS011;16482;51.046;4.498;2023-08-30T00:35:55;5.10;;;3.55;;
29538;SDS011;16482;51.046;4.498;2023-08-30T00:38:25;3.78;;;3.15;;
29538;SDS011;16482;51.046;4.498;2023-08-30T00:40:54;3.80;;;3.40;;
29538;SDS011;16482;51.046;4.498;2023-08-30T00:43:23;4.07;;;3.17;;
29538;SDS011;16482;51.046;4.498;2023-08-30T00:45:49;3.63;;;3.33;;
29538;SDS011;16482;51.046;4.498;2023-08-30T00:48:25;4.65;;;3.45;;
29538;SDS011;16482;51.046;4.498;2023-08-30T00:50:52;4.20;;;3.40;;
29538;SDS011;16482;51.046;4.498;2023-08-30T00:53:23;4.07;;;3.50;;
29538;SDS011;16482;51.046;4.498;2023-08-30T00:55:52;4.70;;;3.30;;
29538;SDS011;16482;51.046;4.498;2023-08-30T00:58:18;5.18;;;3.50;;
29538;SDS011;16482;51.046;4.498;2023-08-30T01:00:46;4.57;;;3.40;;
29538;SDS011;16482;51.046;4.498;2023-08-30T01:03:15;4.45;;;3.38;;
29538;SDS011;16482;51.046;4.498;2023-08-30T01:05:42;4.75;;;3.40;;
29538;SDS011;16482;51.046;4.498;2023-08-30T01:08:07;4.90;;;4.05;;
29538;SDS011;16482;51.046;4.498;2023-08-30T01:13:26;3.90;;;3.42;;
29538;SDS011;16482;51.046;4.498;2023-08-30T01:15:58;6.10;;;3.63;;
29538;SDS011;16482;51.046;4.498;2023-08-30T01:18:26;4.03;;;3.50;;
29538;SDS011;16482;51.046;4.498;2023-08-30T01:21:09;3.90;;;3.50;;
29538;SDS011;16482;51.046;4.498;2023-08-30T01:23:56;4.97;;;3.55;;
29538;SDS011;16482;51.046;4.498;2023-08-30T01:29:23;5.03;;;3.47;;
29538;SDS011;16482;51.046;4.498;2023-08-30T01:31:50;7.00;;;3.67;;
29538;SDS011;16482;51.046;4.498;2023-08-30T01:34:17;4.50;;;3.53;;
29538;SDS011;16482;51.046;4.498;2023-08-30T01:36:46;5.47;;;3.58;;
29538;SDS011;16482;51.046;4.498;2023-08-30T01:39:19;4.10;;;3.53;;
29538;SDS011;16482;51.046;4.498;2023-08-30T01:41:57;4.05;;;3.50;;
29538;SDS011;16482;51.046;4.498;2023-08-30T01:44:28;5.00;;;3.22;;
29538;SDS011;16482;51.046;4.498;2023-08-30T01:46:56;4.03;;;3.28;;
29538;SDS011;16482;51.046;4.498;2023-08-30T01:49:24;4.00;;;3.47;;
29538;SDS011;16482;51.046;4.498;2023-08-30T01:51:50;4.65;;;3.63;;
29538;SDS011;16482;51.046;4.498;2023-08-30T01:54:17;4.93;;;3.28;;
29538;SDS011;16482;51.046;4.498;2023-08-30T01:56:54;4.32;;;3.85;;
29538;SDS011;16482;51.046;4.498;2023-08-30T01:59:24;3.70;;;3.40;;
29538;SDS011;16482;51.046;4.498;2023-08-30T02:01:52;4.68;;;3.50;;
29538;SDS011;16482;51.046;4.498;2023-08-30T02:04:18;4.25;;;3.70;;
29538;SDS011;16482;51.046;4.498;2023-08-30T02:06:53;5.13;;;3.88;;
29538;SDS011;16482;51.046;4.498;2023-08-30T02:09:30;4.50;;;3.83;;
29538;SDS011;16482;51.046;4.498;2023-08-30T02:12:04;4.75;;;3.70;;
29538;SDS011;16482;51.046;4.498;2023-08-30T02:14:35;4.55;;;4.03;;
29538;SDS011;16482;51.046;4.498;2023-08-30T02:17:06;4.45;;;3.70;;
29538;SDS011;16482;51.046;4.498;2023-08-30T02:19:32;6.60;;;3.38;;
29538;SDS011;16482;51.046;4.498;2023-08-30T02:21:59;4.53;;;3.50;;
29538;SDS011;16482;51.046;4.498;2023-08-30T02:24:25;5.32;;;3.83;;
29538;SDS011;16482;51.046;4.498;2023-08-30T02:26:51;4.78;;;3.42;;
29538;SDS011;16482;51.046;4.498;2023-08-30T02:29:19;3.90;;;3.05;;
29538;SDS011;16482;51.046;4.498;2023-08-30T02:31:45;4.30;;;3.45;;
29538;SDS011;16482;51.046;4.498;2023-08-30T02:34:14;5.07;;;3.75;;
29538;SDS011;16482;51.046;4.498;2023-08-30T02:36:48;4.45;;;3.63;;
29538;SDS011;16482;51.046;4.498;2023-08-30T02:39:16;8.40;;;3.53;;
29538;SDS011;16482;51.046;4.498;2023-08-30T02:41:51;4.43;;;3.30;;
29538;SDS011;16482;51.046;4.498;2023-08-30T02:44:19;5.57;;;3.90;;
29538;SDS011;16482;51.046;4.498;2023-08-30T02:46:45;4.78;;;3.58;;
29538;SDS011;16482;51.046;4.498;2023-08-30T02:49:14;4.50;;;3.38;;
29538;SDS011;16482;51.046;4.498;2023-08-30T02:51:40;4.00;;;3.60;;
29538;SDS011;16482;51.046;4.498;2023-08-30T02:54:06;3.55;;;3.25;;
29538;SDS011;16482;51.046;4.498;2023-08-30T02:56:32;3.38;;;3.08;;
29538;SDS011;16482;51.046;4.498;2023-08-30T02:58:58;4.35;;;3.72;;
29538;SDS011;16482;51.046;4.498;2023-08-30T03:01:24;4.03;;;3.53;;
29538;SDS011;16482;51.046;4.498;2023-08-30T03:03:50;5.18;;;3.47;;
29538;SDS011;16482;51.046;4.498;2023-08-30T03:06:16;4.68;;;3.38;;
29538;SDS011;16482;51.046;4.498;2023-08-30T03:08:44;4.57;;;3.45;;
29538;SDS011;16482;51.046;4.498;2023-08-30T03:11:20;4.47;;;3.67;;
29538;SDS011;16482;51.046;4.498;2023-08-30T03:13:46;4.68;;;3.42;;
29538;SDS011;16482;51.046;4.498;2023-08-30T03:16:15;3.97;;;3.35;;
29538;SDS011;16482;51.046;4.498;2023-08-30T03:18:45;4.65;;;3.90;;
29538;SDS011;16482;51.046;4.498;2023-08-30T03:21:11;4.32;;;3.65;;
29538;SDS011;16482;51.046;4.498;2023-08-30T03:23:45;4.03;;;3.15;;
29538;SDS011;16482;51.046;4.498;2023-08-30T03:26:14;4.03;;;3.38;;
29538;SDS011;16482;51.046;4.498;2023-08-30T03:28:41;3.50;;;3.20;;
29538;SDS011;16482;51.046;4.498;2023-08-30T03:31:18;4.22;;;3.50;;
29538;SDS011;16482;51.046;4.498;2023-08-30T03:33:45;4.47;;;3.72;;
29538;SDS011;16482;51.046;4.498;2023-08-30T03:36:16;3.60;;;3.17;;
29538;SDS011;16482;51.046;4.498;2023-08-30T03:38:45;3.63;;;3.00;;
29538;SDS011;16482;51.046;4.498;2023-08-30T03:41:11;4.53;;;3.50;;
29538;SDS011;16482;51.046;4.498;2023-08-30T03:43:38;4.75;;;3.42;;
29538;SDS011;16482;51.046;4.498;2023-08-30T03:46:04;4.28;;;3.30;;
29538;SDS011;16482;51.046;4.498;2023-08-30T03:48:30;4.68;;;3.67;;
29538;SDS011;16482;51.046;4.498;2023-08-30T03:50:58;3.97;;;3.38;;
29538;SDS011;16482;51.046;4.498;2023-08-30T03:53:27;3.83;;;3.08;;
29538;SDS011;16482;51.046;4.498;2023-08-30T03:55:56;4.15;;;3.35;;
29538;SDS011;16482;51.046;4.498;2023-08-30T03:58:22;4.15;;;3.33;;
29538;SDS011;16482;51.046;4.498;2023-08-30T04:00:50;3.83;;;3.17;;
29538;SDS011;16482;51.046;4.498;2023-08-30T04:03:16;4.95;;;3.53;;
29538;SDS011;16482;51.046;4.498;2023-08-30T04:05:42;4.22;;;3.13;;
29538;SDS011;16482;51.046;4.498;2023-08-30T04:08:09;5.18;;;3.45;;
29538;SDS011;16482;51.046;4.498;2023-08-30T04:10:35;3.75;;;3.30;;
29538;SDS011;16482;51.046;4.498;2023-08-30T04:13:15;4.50;;;3.20;;
29538;SDS011;16482;51.046;4.498;2023-08-30T04:15:44;3.58;;;3.28;;
29538;SDS011;16482;51.046;4.498;2023-08-30T04:18:10;4.32;;;3.47;;
29538;SDS011;16482;51.046;4.498;2023-08-30T04:20:43;4.63;;;3.40;;
29538;SDS011;16482;51.046;4.498;2023-08-30T04:23:10;5.03;;;3.42;;
29538;SDS011;16482;51.046;4.498;2023-08-30T04:25:36;4.03;;;3.63;;
29538;SDS011;16482;51.046;4.498;2023-08-30T04:28:02;3.55;;;3.25;;
29538;SDS011;16482;51.046;4.498;2023-08-30T04:30:31;5.45;;;3.97;;
29538;SDS011;16482;51.046;4.498;2023-08-30T04:32:58;7.05;;;4.03;;
29538;SDS011;16482;51.046;4.498;2023-08-30T04:35:26;5.47;;;4.22;;
29538;SDS011;16482;51.046;4.498;2023-08-30T04:37:52;4.20;;;3.80;;
29538;SDS011;16482;51.046;4.498;2023-08-30T04:40:21;4.22;;;3.30;;
29538;SDS011;16482;51.046;4.498;2023-08-30T04:42:47;4.68;;;3.67;;
29538;SDS011;16482;51.046;4.498;2023-08-30T04:45:13;5.45;;;4.05;;
29538;SDS011;16482;51.046;4.498;2023-08-30T04:47:39;4.53;;;3.85;;
29538;SDS011;16482;51.046;4.498;2023-08-30T04:50:08;4.05;;;3.25;;
29538;SDS011;16482;51.046;4.498;2023-08-30T04:52:39;4.43;;;3.70;;
29538;SDS011;16482;51.046;4.498;2023-08-30T04:55:08;5.30;;;3.58;;
29538;SDS011;16482;51.046;4.498;2023-08-30T04:57:34;4.75;;;3.60;;
29538;SDS011;16482;51.046;4.498;2023-08-30T05:00:00;5.63;;;4.10;;
29538;SDS011;16482;51.046;4.498;2023-08-30T05:02:33;4.70;;;3.88;;
29538;SDS011;16482;51.046;4.498;2023-08-30T05:04:59;5.72;;;3.67;;
29538;SDS011;16482;51.046;4.498;2023-08-30T05:07:25;5.68;;;4.28;;
29538;SDS011;16482;51.046;4.498;2023-08-30T05:09:52;4.28;;;3.88;;
29538;SDS011;16482;51.046;4.498;2023-08-30T05:12:18;6.88;;;4.35;;
29538;SDS011;16482;51.046;4.498;2023-08-30T05:14:44;5.35;;;4.05;;
29538;SDS011;16482;51.046;4.498;2023-08-30T05:17:12;5.65;;;4.68;;
29538;SDS011;16482;51.046;4.498;2023-08-30T05:19:41;4.75;;;4.05;;
29538;SDS011;16482;51.046;4.498;2023-08-30T05:22:10;4.55;;;4.05;;
29538;SDS011;16482;51.046;4.498;2023-08-30T05:24:39;4.80;;;4.20;;
29538;SDS011;16482;51.046;4.498;2023-08-30T05:27:05;5.25;;;4.10;;
29538;SDS011;16482;51.046;4.498;2023-08-30T05:29:32;4.68;;;3.88;;
29538;SDS011;16482;51.046;4.498;2023-08-30T05:32:01;5.97;;;4.15;;
29538;SDS011;16482;51.046;4.498;2023-08-30T05:34:27;5.00;;;4.15;;
29538;SDS011;16482;51.046;4.498;2023-08-30T05:36:53;4.95;;;3.90;;
29538;SDS011;16482;51.046;4.498;2023-08-30T05:39:21;4.97;;;4.22;;
29538;SDS011;16482;51.046;4.498;2023-08-30T05:41:48;5.18;;;4.20;;
29538;SDS011;16482;51.046;4.498;2023-08-30T05:44:16;5.90;;;4.15;;
29538;SDS011;16482;51.046;4.498;2023-08-30T05:46:45;4.90;;;4.00;;
29538;SDS011;16482;51.046;4.498;2023-08-30T05:49:14;7.43;;;4.50;;
29538;SDS011;16482;51.046;4.498;2023-08-30T05:51:51;4.82;;;3.95;;
29538;SDS011;16482;51.046;4.498;2023-08-30T05:54:17;6.72;;;4.18;;
29538;SDS011;16482;51.046;4.498;2023-08-30T05:56:45;5.28;;;3.78;;
29538;SDS011;16482;51.046;4.498;2023-08-30T05:59:11;6.47;;;4.45;;
29538;SDS011;16482;51.046;4.498;2023-08-30T06:01:40;5.40;;;4.10;;
29538;SDS011;16482;51.046;4.498;2023-08-30T06:04:09;5.20;;;3.97;;
29538;SDS011;16482;51.046;4.498;2023-08-30T06:06:38;5.35;;;3.92;;
29538;SDS011;16482;51.046;4.498;2023-08-30T06:09:13;5.28;;;4.40;;
29538;SDS011;16482;51.046;4.498;2023-08-30T06:11:42;4.70;;;3.95;;
29538;SDS011;16482;51.046;4.498;2023-08-30T06:14:18;5.18;;;4.25;;
29538;SDS011;16482;51.046;4.498;2023-08-30T06:16:46;6.22;;;4.65;;
29538;SDS011;16482;51.046;4.498;2023-08-30T06:19:23;5.38;;;4.28;;
29538;SDS011;16482;51.046;4.498;2023-08-30T06:21:49;4.93;;;3.58;;
29538;SDS011;16482;51.046;4.498;2023-08-30T06:24:15;5.72;;;4.30;;
29538;SDS011;16482;51.046;4.498;2023-08-30T06:26:40;7.20;;;4.38;;
29538;SDS011;16482;51.046;4.498;2023-08-30T06:29:09;6.10;;;4.38;;
29538;SDS011;16482;51.046;4.498;2023-08-30T06:31:38;5.43;;;4.25;;
29538;SDS011;16482;51.046;4.498;2023-08-30T06:34:15;5.28;;;4.03;;
29538;SDS011;16482;51.046;4.498;2023-08-30T06:36:51;5.00;;;4.28;;
29538;SDS011;16482;51.046;4.498;2023-08-30T06:39:17;5.07;;;4.20;;
29538;SDS011;16482;51.046;4.498;2023-08-30T06:41:52;6.53;;;4.50;;
29538;SDS011;16482;51.046;4.498;2023-08-30T06:44:22;6.32;;;3.83;;
29538;SDS011;16482;51.046;4.498;2023-08-30T06:46:48;7.50;;;4.13;;
29538;SDS011;16482;51.046;4.498;2023-08-30T06:49:16;4.43;;;3.83;;
29538;SDS011;16482;51.046;4.498;2023-08-30T06:51:50;5.85;;;3.97;;
29538;SDS011;16482;51.046;4.498;2023-08-30T06:54:29;5.22;;;3.78;;
29538;SDS011;16482;51.046;4.498;2023-08-30T06:56:59;5.35;;;3.58;;
29538;SDS011;16482;51.046;4.498;2023-08-30T06:59:29;4.93;;;3.58;;
29538;SDS011;16482;51.046;4.498;2023-08-30T07:01:55;6.55;;;3.72;;
29538;SDS011;16482;51.046;4.498;2023-08-30T07:04:21;4.68;;;3.80;;
29538;SDS011;16482;51.046;4.498;2023-08-30T07:06:47;4.40;;;3.25;;
29538;SDS011;16482;51.046;4.498;2023-08-30T07:09:16;4.75;;;3.55;;
29538;SDS011;16482;51.046;4.498;2023-08-30T07:11:45;5.47;;;3.80;;
29538;SDS011;16482;51.046;4.498;2023-08-30T07:14:12;5.82;;;4.20;;
29538;SDS011;16482;51.046;4.498;2023-08-30T07:16:48;5.72;;;3.78;;
29538;SDS011;16482;51.046;4.498;2023-08-30T07:19:16;4.35;;;3.50;;
29538;SDS011;16482;51.046;4.498;2023-08-30T07:21:52;6.05;;;4.00;;
29538;SDS011;16482;51.046;4.498;2023-08-30T07:24:19;5.13;;;3.78;;
29538;SDS011;16482;51.046;4.498;2023-08-30T07:26:48;5.63;;;3.60;;
29538;SDS011;16482;51.046;4.498;2023-08-30T07:29:17;5.72;;;3.47;;
29538;SDS011;16482;51.046;4.498;2023-08-30T07:31:45;6.03;;;3.55;;
29538;SDS011;16482;51.046;4.498;2023-08-30T07:34:21;4.53;;;3.53;;
29538;SDS011;16482;51.046;4.498;2023-08-30T07:36:50;5.50;;;3.72;;
29538;SDS011;16482;51.046;4.498;2023-08-30T07:39:19;6.43;;;3.63;;
29538;SDS011;16482;51.046;4.498;2023-08-30T07:41:48;5.53;;;3.63;;
29538;SDS011;16482;51.046;4.498;2023-08-30T07:44:14;4.82;;;3.80;;
29538;SDS011;16482;51.046;4.498;2023-08-30T07:46:52;5.18;;;3.53;;
29538;SDS011;16482;51.046;4.498;2023-08-30T07:49:18;4.28;;;3.50;;
29538;SDS011;16482;51.046;4.498;2023-08-30T07:51:44;4.25;;;3.35;;
29538;SDS011;16482;51.046;4.498;2023-08-30T07:54:10;5.07;;;3.20;;
29538;SDS011;16482;51.046;4.498;2023-08-30T07:56:36;6.65;;;3.45;;
29538;SDS011;16482;51.046;4.498;2023-08-30T07:59:02;4.72;;;3.55;;
29538;SDS011;16482;51.046;4.498;2023-08-30T08:01:28;6.20;;;3.53;;
29538;SDS011;16482;51.046;4.498;2023-08-30T08:03:54;4.95;;;3.50;;
29538;SDS011;16482;51.046;4.498;2023-08-30T08:06:20;5.78;;;3.80;;
29538;SDS011;16482;51.046;4.498;2023-08-30T08:08:46;4.15;;;3.47;;
29538;SDS011;16482;51.046;4.498;2023-08-30T08:11:15;4.63;;;3.42;;
29538;SDS011;16482;51.046;4.498;2023-08-30T08:13:44;3.90;;;3.13;;
29538;SDS011;16482;51.046;4.498;2023-08-30T08:16:10;4.32;;;3.50;;
29538;SDS011;16482;51.046;4.498;2023-08-30T08:18:36;3.70;;;2.83;;
29538;SDS011;16482;51.046;4.498;2023-08-30T08:21:05;5.75;;;3.65;;
29538;SDS011;16482;51.046;4.498;2023-08-30T08:23:31;4.53;;;3.40;;
29538;SDS011;16482;51.046;4.498;2023-08-30T08:25:57;4.20;;;3.22;;
29538;SDS011;16482;51.046;4.498;2023-08-30T08:28:28;5.63;;;3.60;;
29538;SDS011;16482;51.046;4.498;2023-08-30T08:30:57;4.82;;;3.38;;
29538;SDS011;16482;51.046;4.498;2023-08-30T08:33:33;4.90;;;3.60;;
29538;SDS011;16482;51.046;4.498;2023-08-30T08:36:02;5.55;;;3.60;;
29538;SDS011;16482;51.046;4.498;2023-08-30T08:38:28;5.90;;;3.92;;
29538;SDS011;16482;51.046;4.498;2023-08-30T08:41:01;5.68;;;3.78;;
29538;SDS011;16482;51.046;4.498;2023-08-30T08:43:30;4.85;;;3.42;;
29538;SDS011;16482;51.046;4.498;2023-08-30T08:46:05;4.70;;;3.60;;
29538;SDS011;16482;51.046;4.498;2023-08-30T08:48:33;5.13;;;3.55;;
29538;SDS011;16482;51.046;4.498;2023-08-30T08:51:04;5.65;;;4.03;;
29538;SDS011;16482;51.046;4.498;2023-08-30T08:56:06;4.63;;;3.47;;
29538;SDS011;16482;51.046;4.498;2023-08-30T08:58:34;5.03;;;3.65;;
29538;SDS011;16482;51.046;4.498;2023-08-30T09:01:04;5.50;;;3.88;;
29538;SDS011;16482;51.046;4.498;2023-08-30T09:03:38;4.00;;;3.22;;
29538;SDS011;16482;51.046;4.498;2023-08-30T09:06:06;4.10;;;3.35;;
29538;SDS011;16482;51.046;4.498;2023-08-30T09:08:34;4.82;;;3.63;;
29538;SDS011;16482;51.046;4.498;2023-08-30T09:11:01;6.35;;;3.60;;
29538;SDS011;16482;51.046;4.498;2023-08-30T09:13:27;4.15;;;3.25;;
29538;SDS011;16482;51.046;4.498;2023-08-30T09:15:56;3.95;;;3.25;;
29538;SDS011;16482;51.046;4.498;2023-08-30T09:18:26;5.95;;;3.65;;
29538;SDS011;16482;51.046;4.498;2023-08-30T09:21:13;6.88;;;3.75;;
29538;SDS011;16482;51.046;4.498;2023-08-30T09:23:38;4.55;;;3.53;;
29538;SDS011;16482;51.046;4.498;2023-08-30T09:26:07;5.18;;;3.72;;
29538;SDS011;16482;51.046;4.498;2023-08-30T09:28:42;4.95;;;3.58;;
29538;SDS011;16482;51.046;4.498;2023-08-30T09:31:16;4.78;;;3.47;;
29538;SDS011;16482;51.046;4.498;2023-08-30T09:33:45;4.95;;;3.30;;
29538;SDS011;16482;51.046;4.498;2023-08-30T09:36:21;5.05;;;3.70;;
29538;SDS011;16482;51.046;4.498;2023-08-30T09:38:50;3.95;;;3.40;;
29538;SDS011;16482;51.046;4.498;2023-08-30T09:41:17;3.90;;;3.30;;
29538;SDS011;16482;51.046;4.498;2023-08-30T09:43:43;4.07;;;3.25;;
29538;SDS011;16482;51.046;4.498;2023-08-30T09:46:12;4.10;;;3.50;;
29538;SDS011;16482;51.046;4.498;2023-08-30T09:48:49;3.78;;;3.05;;
29538;SDS011;16482;51.046;4.498;2023-08-30T09:51:15;7.22;;;3.60;;
29538;SDS011;16482;51.046;4.498;2023-08-30T09:53:51;5.15;;;3.85;;
29538;SDS011;16482;51.046;4.498;2023-08-30T09:56:21;4.88;;;3.50;;
29538;SDS011;16482;51.046;4.498;2023-08-30T09:58:50;4.57;;;3.70;;
29538;SDS011;16482;51.046;4.498;2023-08-30T10:01:16;6.75;;;3.92;;
29538;SDS011;16482;51.046;4.498;2023-08-30T10:03:42;4.90;;;3.38;;
29538;SDS011;16482;51.046;4.498;2023-08-30T10:06:08;5.47;;;3.97;;
29538;SDS011;16482;51.046;4.498;2023-08-30T10:08:34;5.95;;;3.50;;
29538;SDS011;16482;51.046;4.498;2023-08-30T10:11:02;4.55;;;3.42;;
29538;SDS011;16482;51.046;4.498;2023-08-30T10:13:30;3.83;;;3.08;;
29538;SDS011;16482;51.046;4.498;2023-08-30T10:16:01;5.03;;;3.92;;
29538;SDS011;16482;51.046;4.498;2023-08-30T10:18:29;5.32;;;3.67;;
29538;SDS011;16482;51.046;4.498;2023-08-30T10:21:08;4.50;;;3.72;;
29538;SDS011;16482;51.046;4.498;2023-08-30T10:23:37;5.05;;;3.95;;
29538;SDS011;16482;51.046;4.498;2023-08-30T10:26:08;4.13;;;3.65;;
29538;SDS011;16482;51.046;4.498;2023-08-30T10:28:34;4.63;;;4.13;;
29538;SDS011;16482;51.046;4.498;2023-08-30T10:31:02;5.43;;;3.38;;
29538;SDS011;16482;51.046;4.498;2023-08-30T10:33:28;4.25;;;3.53;;
29538;SDS011;16482;51.046;4.498;2023-08-30T10:36:02;4.03;;;3.63;;
29538;SDS011;16482;51.046;4.498;2023-08-30T10:38:34;4.72;;;3.92;;
29538;SDS011;16482;51.046;4.498;2023-08-30T10:41:08;4.78;;;3.75;;
29538;SDS011;16482;51.046;4.498;2023-08-30T10:43:35;4.43;;;4.00;;
29538;SDS011;16482;51.046;4.498;2023-08-30T10:46:04;4.55;;;4.05;;
29538;SDS011;16482;51.046;4.498;2023-08-30T10:48:40;4.18;;;3.78;;
29538;SDS011;16482;51.046;4.498;2023-08-30T10:54:18;5.38;;;4.13;;
29538;SDS011;16482;51.046;4.498;2023-08-30T10:59:26;5.22;;;4.20;;
29538;SDS011;16482;51.046;4.498;2023-08-30T11:01:54;5.75;;;3.88;;
29538;SDS011;16482;51.046;4.498;2023-08-30T11:04:23;4.57;;;3.90;;
29538;SDS011;16482;51.046;4.498;2023-08-30T11:06:51;5.68;;;4.47;;
29538;SDS011;16482;51.046;4.498;2023-08-30T11:09:18;4.55;;;3.95;;
29538;SDS011;16482;51.046;4.498;2023-08-30T11:11:46;4.03;;;3.63;;
29538;SDS011;16482;51.046;4.498;2023-08-30T11:14:15;5.78;;;4.30;;
29538;SDS011;16482;51.046;4.498;2023-08-30T11:16:43;4.68;;;4.03;;
29538;SDS011;16482;51.046;4.498;2023-08-30T11:19:18;5.15;;;4.47;;
29538;SDS011;16482;51.046;4.498;2023-08-30T11:21:54;4.53;;;3.92;;
29538;SDS011;16482;51.046;4.498;2023-08-30T11:24:20;5.00;;;3.65;;
29538;SDS011;16482;51.046;4.498;2023-08-30T11:26:52;4.63;;;3.80;;
29538;SDS011;16482;51.046;4.498;2023-08-30T11:29:19;5.38;;;3.95;;
29538;SDS011;16482;51.046;4.498;2023-08-30T11:31:51;4.88;;;3.80;;
29538;SDS011;16482;51.046;4.498;2023-08-30T11:34:19;4.38;;;3.80;;
29538;SDS011;16482;51.046;4.498;2023-08-30T11:36:48;5.05;;;3.95;;
29538;SDS011;16482;51.046;4.498;2023-08-30T11:39:18;5.32;;;3.88;;
29538;SDS011;16482;51.046;4.498;2023-08-30T11:41:45;6.40;;;4.50;;
29538;SDS011;16482;51.046;4.498;2023-08-30T11:44:12;6.60;;;3.90;;
29538;SDS011;16482;51.046;4.498;2023-08-30T11:46:48;4.32;;;3.92;;
29538;SDS011;16482;51.046;4.498;2023-08-30T11:49:25;5.80;;;4.00;;
29538;SDS011;16482;51.046;4.498;2023-08-30T11:51:53;4.55;;;3.83;;
29538;SDS011;16482;51.046;4.498;2023-08-30T11:54:22;4.72;;;3.92;;
29538;SDS011;16482;51.046;4.498;2023-08-30T11:56:49;5.25;;;4.10;;
29538;SDS011;16482;51.046;4.498;2023-08-30T11:59:22;5.82;;;3.88;;
29538;SDS011;16482;51.046;4.498;2023-08-30T12:01:48;6.55;;;3.70;;
29538;SDS011;16482;51.046;4.498;2023-08-30T12:04:17;4.70;;;3.67;;
29538;SDS011;16482;51.046;4.498;2023-08-30T12:06:52;5.78;;;3.85;;
29538;SDS011;16482;51.046;4.498;2023-08-30T12:09:32;5.18;;;3.65;;
29538;SDS011;16482;51.046;4.498;2023-08-30T12:12:09;4.80;;;3.63;;
29538;SDS011;16482;51.046;4.498;2023-08-30T12:14:38;5.22;;;3.53;;
29538;SDS011;16482;51.046;4.498;2023-08-30T12:17:08;5.03;;;3.53;;
29538;SDS011;16482;51.046;4.498;2023-08-30T12:19:36;5.20;;;3.42;;
29538;SDS011;16482;51.046;4.498;2023-08-30T12:22:04;4.55;;;3.50;;
29538;SDS011;16482;51.046;4.498;2023-08-30T12:24:44;6.32;;;3.50;;
29538;SDS011;16482;51.046;4.498;2023-08-30T12:27:10;5.07;;;3.22;;
29538;SDS011;16482;51.046;4.498;2023-08-30T12:29:39;5.55;;;3.20;;
29538;SDS011;16482;51.046;4.498;2023-08-30T12:32:16;5.72;;;3.35;;
29538;SDS011;16482;51.046;4.498;2023-08-30T12:34:42;5.72;;;3.30;;
29538;SDS011;16482;51.046;4.498;2023-08-30T12:37:08;6.63;;;3.80;;
29538;SDS011;16482;51.046;4.498;2023-08-30T12:39:36;4.60;;;3.20;;
29538;SDS011;16482;51.046;4.498;2023-08-30T12:42:02;6.38;;;3.50;;
29538;SDS011;16482;51.046;4.498;2023-08-30T12:44:28;7.13;;;3.33;;
29538;SDS011;16482;51.046;4.498;2023-08-30T12:47:03;4.65;;;3.03;;
29538;SDS011;16482;51.046;4.498;2023-08-30T12:49:31;4.28;;;2.95;;
29538;SDS011;16482;51.046;4.498;2023-08-30T12:52:00;5.30;;;2.97;;
29538;SDS011;16482;51.046;4.498;2023-08-30T12:54:26;4.70;;;2.90;;
29538;SDS011;16482;51.046;4.498;2023-08-30T12:56:55;5.30;;;3.00;;
29538;SDS011;16482;51.046;4.498;2023-08-30T12:59:21;5.45;;;3.05;;
29538;SDS011;16482;51.046;4.498;2023-08-30T13:01:50;6.22;;;2.97;;
29538;SDS011;16482;51.046;4.498;2023-08-30T13:04:19;5.93;;;3.08;;
29538;SDS011;16482;51.046;4.498;2023-08-30T13:06:48;5.70;;;2.80;;
29538;SDS011;16482;51.046;4.498;2023-08-30T13:09:17;6.25;;;3.33;;
29538;SDS011;16482;51.046;4.498;2023-08-30T13:11:46;5.95;;;3.10;;
29538;SDS011;16482;51.046;4.498;2023-08-30T13:14:17;4.65;;;2.80;;
29538;SDS011;16482;51.046;4.498;2023-08-30T13:16:46;4.93;;;2.80;;
29538;SDS011;16482;51.046;4.498;2023-08-30T13:19:21;4.95;;;2.80;;
29538;SDS011;16482;51.046;4.498;2023-08-30T13:21:47;5.10;;;2.88;;
29538;SDS011;16482;51.046;4.498;2023-08-30T13:24:22;5.82;;;2.95;;
29538;SDS011;16482;51.046;4.498;2023-08-30T13:26:51;5.75;;;2.40;;
29538;SDS011;16482;51.046;4.498;2023-08-30T13:29:20;4.00;;;2.70;;
29538;SDS011;16482;51.046;4.498;2023-08-30T13:31:48;5.78;;;2.80;;
29538;SDS011;16482;51.046;4.498;2023-08-30T13:34:17;4.78;;;2.67;;
29538;SDS011;16482;51.046;4.498;2023-08-30T13:36:46;4.70;;;2.88;;
29538;SDS011;16482;51.046;4.498;2023-08-30T13:39:12;5.43;;;2.63;;
29538;SDS011;16482;51.046;4.498;2023-08-30T13:41:46;4.95;;;2.83;;
29538;SDS011;16482;51.046;4.498;2023-08-30T13:44:15;5.93;;;2.88;;
29538;SDS011;16482;51.046;4.498;2023-08-30T13:46:41;4.93;;;2.55;;
29538;SDS011;16482;51.046;4.498;2023-08-30T13:49:18;4.15;;;2.47;;
29538;SDS011;16482;51.046;4.498;2023-08-30T13:51:48;8.32;;;3.00;;
29538;SDS011;16482;51.046;4.498;2023-08-30T13:54:16;4.28;;;2.58;;
29538;SDS011;16482;51.046;4.498;2023-08-30T13:56:48;4.65;;;2.70;;
29538;SDS011;16482;51.046;4.498;2023-08-30T13:59:16;4.07;;;2.33;;
29538;SDS011;16482;51.046;4.498;2023-08-30T14:01:45;3.20;;;2.30;;
29538;SDS011;16482;51.046;4.498;2023-08-30T14:04:11;5.13;;;2.42;;
29538;SDS011;16482;51.046;4.498;2023-08-30T14:06:39;4.50;;;2.40;;
29538;SDS011;16482;51.046;4.498;2023-08-30T14:09:05;4.32;;;2.50;;
29538;SDS011;16482;51.046;4.498;2023-08-30T14:11:33;4.03;;;2.55;;
29538;SDS011;16482;51.046;4.498;2023-08-30T14:14:01;5.47;;;2.58;;
29538;SDS011;16482;51.046;4.498;2023-08-30T14:16:27;3.72;;;2.33;;
29538;SDS011;16482;51.046;4.498;2023-08-30T14:18:53;3.83;;;2.50;;
29538;SDS011;16482;51.046;4.498;2023-08-30T14:21:19;4.57;;;2.33;;
29538;SDS011;16482;51.046;4.498;2023-08-30T14:23:46;4.25;;;2.33;;
29538;SDS011;16482;51.046;4.498;2023-08-30T14:26:11;3.45;;;2.30;;
29538;SDS011;16482;51.046;4.498;2023-08-30T14:28:38;4.25;;;2.45;;
29538;SDS011;16482;51.046;4.498;2023-08-30T14:31:09;3.53;;;2.05;;
29538;SDS011;16482;51.046;4.498;2023-08-30T14:33:36;3.65;;;2.28;;
29538;SDS011;16482;51.046;4.498;2023-08-30T14:36:11;4.57;;;2.50;;
29538;SDS011;16482;51.046;4.498;2023-08-30T14:38:40;4.30;;;2.17;;
29538;SDS011;16482;51.046;4.498;2023-08-30T14:41:09;3.92;;;1.98;;
29538;SDS011;16482;51.046;4.498;2023-08-30T14:43:45;4.85;;;2.50;;
29538;SDS011;16482;51.046;4.498;2023-08-30T14:46:11;4.45;;;2.17;;
29538;SDS011;16482;51.046;4.498;2023-08-30T14:48:40;4.75;;;2.10;;
29538;SDS011;16482;51.046;4.498;2023-08-30T14:51:09;4.72;;;2.28;;
29538;SDS011;16482;51.046;4.498;2023-08-30T14:53:37;4.10;;;2.00;;
29538;SDS011;16482;51.046;4.498;2023-08-30T14:56:04;4.40;;;2.40;;
29538;SDS011;16482;51.046;4.498;2023-08-30T14:58:33;4.45;;;2.08;;
29538;SDS011;16482;51.046;4.498;2023-08-30T15:01:07;3.15;;;1.85;;
29538;SDS011;16482;51.046;4.498;2023-08-30T15:03:45;3.67;;;1.90;;
29538;SDS011;16482;51.046;4.498;2023-08-30T15:06:11;4.40;;;2.33;;
29538;SDS011;16482;51.046;4.498;2023-08-30T15:08:37;2.53;;;1.80;;
29538;SDS011;16482;51.046;4.498;2023-08-30T15:11:06;4.03;;;2.03;;
29538;SDS011;16482;51.046;4.498;2023-08-30T15:13:33;3.25;;;1.95;;